Terminal Aerodrome Forecast
Issued by NWS

Home | Current Version | Previous Version | Text Only | Print | Product List | Glossary On
Versions: 1 2 3 4 5 6 7 8 9 10 11 12 13 14 15 16 17
000
FTUS46 KSGX 011720
TAFCRQ
TAF
KCRQ 011720Z 0118/0218 VRB04KT 6SM HZ SKC
     FM011900 26009KT P6SM SKC
     FM020000 VRB04KT P6SM FEW008
     FM020400 VRB03KT 6SM BR BKN008
     FM021200 VRB04KT P6SM OVC010
     FM021700 21008KT P6SM SCT015=

USA.gov is the U.S. government's official web portal to all federal, state and local government web resources and services.